sensor_id;sensor_type;location;lat;lon;timestamp;temperature;humidity
37356;DHT22;48747;50.250;18.848;2024-03-08T00:00:29;0.50;99.90
37356;DHT22;48747;50.250;18.848;2024-03-08T00:02:33;0.40;99.90
37356;DHT22;48747;50.250;18.848;2024-03-08T00:04:38;0.30;99.90
37356;DHT22;48747;50.250;18.848;2024-03-08T00:06:41;0.30;99.90
37356;DHT22;48747;50.250;18.848;2024-03-08T00:08:46;0.30;99.90
37356;DHT22;48747;50.250;18.848;2024-03-08T00:10:49;0.30;99.90
37356;DHT22;48747;50.250;18.848;2024-03-08T00:12:52;0.30;99.90
37356;DHT22;48747;50.250;18.848;2024-03-08T00:14:55;0.30;99.90
37356;DHT22;48747;50.250;18.848;2024-03-08T00:16:58;0.30;99.90
37356;DHT22;48747;50.250;18.848;2024-03-08T00:19:01;0.30;99.90
37356;DHT22;48747;50.250;18.848;2024-03-08T00:21:04;0.30;99.90
37356;DHT22;48747;50.250;18.848;2024-03-08T00:23:07;0.20;99.90
37356;DHT22;48747;50.250;18.848;2024-03-08T00:25:10;0.20;99.90
37356;DHT22;48747;50.250;18.848;2024-03-08T00:27:16;0.20;99.90
37356;DHT22;48747;50.250;18.848;2024-03-08T00:29:21;0.20;99.90
37356;DHT22;48747;50.250;18.848;2024-03-08T00:31:24;0.20;99.90
37356;DHT22;48747;50.250;18.848;2024-03-08T00:33:27;0.20;99.90
37356;DHT22;48747;50.250;18.848;2024-03-08T00:35:31;0.20;99.90
37356;DHT22;48747;50.250;18.848;2024-03-08T00:37:34;0.20;99.90
37356;DHT22;48747;50.250;18.848;2024-03-08T00:39:37;0.20;99.90
37356;DHT22;48747;50.250;18.848;2024-03-08T00:41:40;0.30;99.90
37356;DHT22;48747;50.250;18.848;2024-03-08T00:43:43;0.20;99.90
37356;DHT22;48747;50.250;18.848;2024-03-08T00:45:47;0.20;99.90
37356;DHT22;48747;50.250;18.848;2024-03-08T00:47:50;0.10;99.90
37356;DHT22;48747;50.250;18.848;2024-03-08T00:49:53;0.10;99.90
37356;DHT22;48747;50.250;18.848;2024-03-08T00:51:58;0.10;99.90
37356;DHT22;48747;50.250;18.848;2024-03-08T00:54:03;0.10;99.90
37356;DHT22;48747;50.250;18.848;2024-03-08T00:56:07;0.10;99.90
37356;DHT22;48747;50.250;18.848;2024-03-08T00:58:17;0.20;99.90
37356;DHT22;48747;50.250;18.848;2024-03-08T01:00:17;0.20;99.90
37356;DHT22;48747;50.250;18.848;2024-03-08T01:02:20;0.20;99.90
37356;DHT22;48747;50.250;18.848;2024-03-08T01:04:25;0.20;99.90
37356;DHT22;48747;50.250;18.848;2024-03-08T01:06:29;0.20;99.90
37356;DHT22;48747;50.250;18.848;2024-03-08T01:08:32;0.20;99.90
37356;DHT22;48747;50.250;18.848;2024-03-08T01:10:35;0.20;99.90
37356;DHT22;48747;50.250;18.848;2024-03-08T01:12:39;0.20;99.90
37356;DHT22;48747;50.250;18.848;2024-03-08T01:14:44;0.20;99.90
37356;DHT22;48747;50.250;18.848;2024-03-08T01:16:48;0.20;99.90
37356;DHT22;48747;50.250;18.848;2024-03-08T01:18:52;0.10;99.90
37356;DHT22;48747;50.250;18.848;2024-03-08T01:20:55;0.10;99.90
37356;DHT22;48747;50.250;18.848;2024-03-08T01:22:58;0.10;99.90
37356;DHT22;48747;50.250;18.848;2024-03-08T01:25:03;0.10;99.90
37356;DHT22;48747;50.250;18.848;2024-03-08T01:27:06;0.10;99.90
37356;DHT22;48747;50.250;18.848;2024-03-08T01:29:11;0.10;99.90
37356;DHT22;48747;50.250;18.848;2024-03-08T01:31:14;0.10;99.90
37356;DHT22;48747;50.250;18.848;2024-03-08T01:33:17;0.10;99.90
37356;DHT22;48747;50.250;18.848;2024-03-08T01:35:22;0.00;99.90
37356;DHT22;48747;50.250;18.848;2024-03-08T01:37:27;0.00;99.90
37356;DHT22;48747;50.250;18.848;2024-03-08T01:39:33;-0.10;99.90
37356;DHT22;48747;50.250;18.848;2024-03-08T01:41:36;0.00;99.90
37356;DHT22;48747;50.250;18.848;2024-03-08T01:43:39;0.00;99.90
37356;DHT22;48747;50.250;18.848;2024-03-08T01:45:42;0.00;99.90
37356;DHT22;48747;50.250;18.848;2024-03-08T01:47:45;0.00;99.90
37356;DHT22;48747;50.250;18.848;2024-03-08T01:49:50;0.00;99.90
37356;DHT22;48747;50.250;18.848;2024-03-08T01:51:58;0.00;99.90
37356;DHT22;48747;50.250;18.848;2024-03-08T01:54:05;0.00;99.90
37356;DHT22;48747;50.250;18.848;2024-03-08T01:56:07;0.00;99.90
37356;DHT22;48747;50.250;18.848;2024-03-08T01:58:10;-0.10;99.90
37356;DHT22;48747;50.250;18.848;2024-03-08T02:00:19;-0.10;99.90
37356;DHT22;48747;50.250;18.848;2024-03-08T02:02:19;0.00;99.90
37356;DHT22;48747;50.250;18.848;2024-03-08T02:04:23;0.00;99.90
37356;DHT22;48747;50.250;18.848;2024-03-08T02:06:26;0.00;99.90
37356;DHT22;48747;50.250;18.848;2024-03-08T02:08:29;-0.10;99.90
37356;DHT22;48747;50.250;18.848;2024-03-08T02:10:34;-0.10;99.90
37356;DHT22;48747;50.250;18.848;2024-03-08T02:12:37;0.00;99.90
37356;DHT22;48747;50.250;18.848;2024-03-08T02:14:40;0.00;99.90
37356;DHT22;48747;50.250;18.848;2024-03-08T02:16:43;0.00;99.90
37356;DHT22;48747;50.250;18.848;2024-03-08T02:18:46;0.00;99.90
37356;DHT22;48747;50.250;18.848;2024-03-08T02:20:52;-0.10;99.90
37356;DHT22;48747;50.250;18.848;2024-03-08T02:22:55;-0.10;99.90
37356;DHT22;48747;50.250;18.848;2024-03-08T02:25:02;-0.10;99.90
37356;DHT22;48747;50.250;18.848;2024-03-08T02:27:06;-0.20;99.90
37356;DHT22;48747;50.250;18.848;2024-03-08T02:29:09;-0.20;99.90
37356;DHT22;48747;50.250;18.848;2024-03-08T02:31:12;-0.10;99.90
37356;DHT22;48747;50.250;18.848;2024-03-08T02:33:17;-0.10;99.90
37356;DHT22;48747;50.250;18.848;2024-03-08T02:35:20;-0.10;99.90
37356;DHT22;48747;50.250;18.848;2024-03-08T02:37:23;-0.10;99.90
37356;DHT22;48747;50.250;18.848;2024-03-08T02:39:26;-0.10;99.90
37356;DHT22;48747;50.250;18.848;2024-03-08T02:41:29;-0.20;99.90
37356;DHT22;48747;50.250;18.848;2024-03-08T02:43:35;-0.20;99.90
37356;DHT22;48747;50.250;18.848;2024-03-08T02:45:41;-0.10;99.90
37356;DHT22;48747;50.250;18.848;2024-03-08T02:47:44;-0.20;99.90
37356;DHT22;48747;50.250;18.848;2024-03-08T02:49:48;-0.20;99.90
37356;DHT22;48747;50.250;18.848;2024-03-08T02:51:53;-0.20;99.90
37356;DHT22;48747;50.250;18.848;2024-03-08T02:53:58;-0.10;99.90
37356;DHT22;48747;50.250;18.848;2024-03-08T02:56:01;-0.20;99.90
37356;DHT22;48747;50.250;18.848;2024-03-08T02:58:04;-0.20;99.90
37356;DHT22;48747;50.250;18.848;2024-03-08T03:00:09;-0.20;99.90
37356;DHT22;48747;50.250;18.848;2024-03-08T03:02:12;-0.20;99.90
37356;DHT22;48747;50.250;18.848;2024-03-08T03:04:15;-0.20;99.90
37356;DHT22;48747;50.250;18.848;2024-03-08T03:06:19;-0.20;99.90
37356;DHT22;48747;50.250;18.848;2024-03-08T03:08:23;-0.20;99.90
37356;DHT22;48747;50.250;18.848;2024-03-08T03:10:31;-0.20;99.90
37356;DHT22;48747;50.250;18.848;2024-03-08T03:12:31;-0.20;99.90
37356;DHT22;48747;50.250;18.848;2024-03-08T03:14:36;-0.20;99.90
37356;DHT22;48747;50.250;18.848;2024-03-08T03:16:40;-0.30;99.90
37356;DHT22;48747;50.250;18.848;2024-03-08T03:18:45;-0.30;99.90
37356;DHT22;48747;50.250;18.848;2024-03-08T03:20:48;-0.30;99.90
37356;DHT22;48747;50.250;18.848;2024-03-08T03:22:51;-0.30;99.90
37356;DHT22;48747;50.250;18.848;2024-03-08T03:24:55;-0.30;99.90
37356;DHT22;48747;50.250;18.848;2024-03-08T03:26:59;-0.20;99.90
37356;DHT22;48747;50.250;18.848;2024-03-08T03:29:02;-0.30;99.90
37356;DHT22;48747;50.250;18.848;2024-03-08T03:31:07;-0.30;99.90
37356;DHT22;48747;50.250;18.848;2024-03-08T03:33:17;-0.30;99.90
37356;DHT22;48747;50.250;18.848;2024-03-08T03:35:18;-0.30;99.90
37356;DHT22;48747;50.250;18.848;2024-03-08T03:37:22;-0.30;99.90
37356;DHT22;48747;50.250;18.848;2024-03-08T03:39:25;-0.30;99.90
37356;DHT22;48747;50.250;18.848;2024-03-08T03:41:30;-0.30;99.90
37356;DHT22;48747;50.250;18.848;2024-03-08T03:43:33;-0.30;99.90
37356;DHT22;48747;50.250;18.848;2024-03-08T03:45:36;-0.30;99.90
37356;DHT22;48747;50.250;18.848;2024-03-08T03:47:39;-0.40;99.90
37356;DHT22;48747;50.250;18.848;2024-03-08T03:49:42;-0.40;99.90
37356;DHT22;48747;50.250;18.848;2024-03-08T03:51:45;-0.30;99.90
37356;DHT22;48747;50.250;18.848;2024-03-08T03:53:48;-0.40;99.90
37356;DHT22;48747;50.250;18.848;2024-03-08T03:55:52;-0.40;99.90
37356;DHT22;48747;50.250;18.848;2024-03-08T03:57:55;-0.40;99.90
37356;DHT22;48747;50.250;18.848;2024-03-08T03:59:58;-0.40;99.90
37356;DHT22;48747;50.250;18.848;2024-03-08T04:02:01;-0.40;99.90
37356;DHT22;48747;50.250;18.848;2024-03-08T04:04:05;-0.40;99.90
37356;DHT22;48747;50.250;18.848;2024-03-08T04:06:09;-0.40;99.90
37356;DHT22;48747;50.250;18.848;2024-03-08T04:08:12;-0.40;99.90
37356;DHT22;48747;50.250;18.848;2024-03-08T04:10:15;-0.40;99.90
37356;DHT22;48747;50.250;18.848;2024-03-08T04:12:18;-0.40;99.90
37356;DHT22;48747;50.250;18.848;2024-03-08T04:14:21;-0.40;99.90
37356;DHT22;48747;50.250;18.848;2024-03-08T04:16:25;-0.40;99.90
37356;DHT22;48747;50.250;18.848;2024-03-08T04:18:28;-0.40;99.90
37356;DHT22;48747;50.250;18.848;2024-03-08T04:20:31;-0.40;99.90
37356;DHT22;48747;50.250;18.848;2024-03-08T04:22:38;-0.40;99.90
37356;DHT22;48747;50.250;18.848;2024-03-08T04:24:41;-0.40;99.90
37356;DHT22;48747;50.250;18.848;2024-03-08T04:26:45;-0.30;99.90
37356;DHT22;48747;50.250;18.848;2024-03-08T04:28:48;-0.40;99.90
37356;DHT22;48747;50.250;18.848;2024-03-08T04:30:51;-0.40;99.90
37356;DHT22;48747;50.250;18.848;2024-03-08T04:32:54;-0.40;99.90
37356;DHT22;48747;50.250;18.848;2024-03-08T04:34:57;-0.50;99.90
37356;DHT22;48747;50.250;18.848;2024-03-08T04:37:02;-0.50;99.90
37356;DHT22;48747;50.250;18.848;2024-03-08T04:39:07;-0.40;99.90
37356;DHT22;48747;50.250;18.848;2024-03-08T04:41:12;-0.50;99.90
37356;DHT22;48747;50.250;18.848;2024-03-08T04:43:15;-0.50;99.90
37356;DHT22;48747;50.250;18.848;2024-03-08T04:45:19;-0.40;99.90
37356;DHT22;48747;50.250;18.848;2024-03-08T04:47:23;-0.50;99.90
37356;DHT22;48747;50.250;18.848;2024-03-08T04:49:26;-0.50;99.90
37356;DHT22;48747;50.250;18.848;2024-03-08T04:51:30;-0.50;99.90
37356;DHT22;48747;50.250;18.848;2024-03-08T04:53:33;-0.50;99.90
37356;DHT22;48747;50.250;18.848;2024-03-08T04:55:37;-0.50;99.90
37356;DHT22;48747;50.250;18.848;2024-03-08T04:57:41;-0.60;99.90
37356;DHT22;48747;50.250;18.848;2024-03-08T04:59:45;-0.60;99.90
37356;DHT22;48747;50.250;18.848;2024-03-08T05:01:51;-0.60;99.90
37356;DHT22;48747;50.250;18.848;2024-03-08T05:03:56;-0.60;99.90
37356;DHT22;48747;50.250;18.848;2024-03-08T05:05:59;-0.60;99.90
37356;DHT22;48747;50.250;18.848;2024-03-08T05:08:03;-0.60;99.90
37356;DHT22;48747;50.250;18.848;2024-03-08T05:10:07;-0.60;99.90
37356;DHT22;48747;50.250;18.848;2024-03-08T05:12:11;-0.60;99.90
37356;DHT22;48747;50.250;18.848;2024-03-08T05:14:14;-0.60;99.90
37356;DHT22;48747;50.250;18.848;2024-03-08T05:16:22;-0.50;99.90
37356;DHT22;48747;50.250;18.848;2024-03-08T05:18:25;-0.50;99.90
37356;DHT22;48747;50.250;18.848;2024-03-08T05:20:29;-0.50;99.90
37356;DHT22;48747;50.250;18.848;2024-03-08T05:22:33;-0.50;99.90
37356;DHT22;48747;50.250;18.848;2024-03-08T05:24:36;-0.50;99.90
37356;DHT22;48747;50.250;18.848;2024-03-08T05:26:39;-0.40;99.90
37356;DHT22;48747;50.250;18.848;2024-03-08T05:28:42;-0.40;99.90
37356;DHT22;48747;50.250;18.848;2024-03-08T05:30:46;-0.30;99.90
37356;DHT22;48747;50.250;18.848;2024-03-08T05:32:49;-0.30;99.90
37356;DHT22;48747;50.250;18.848;2024-03-08T05:34:54;-0.20;99.90
37356;DHT22;48747;50.250;18.848;2024-03-08T05:36:57;-0.20;99.90
37356;DHT22;48747;50.250;18.848;2024-03-08T05:39:02;-0.10;99.90
37356;DHT22;48747;50.250;18.848;2024-03-08T05:41:06;-0.10;99.90
37356;DHT22;48747;50.250;18.848;2024-03-08T05:43:09;-0.10;99.90
37356;DHT22;48747;50.250;18.848;2024-03-08T05:45:19;-0.10;99.90
37356;DHT22;48747;50.250;18.848;2024-03-08T05:47:18;0.00;99.90
37356;DHT22;48747;50.250;18.848;2024-03-08T05:49:21;0.00;99.90
37356;DHT22;48747;50.250;18.848;2024-03-08T05:51:25;0.10;99.90
37356;DHT22;48747;50.250;18.848;2024-03-08T05:53:30;0.10;99.90
37356;DHT22;48747;50.250;18.848;2024-03-08T05:55:35;0.10;99.90
37356;DHT22;48747;50.250;18.848;2024-03-08T05:57:38;0.20;99.90
37356;DHT22;48747;50.250;18.848;2024-03-08T05:59:41;0.30;99.90
37356;DHT22;48747;50.250;18.848;2024-03-08T06:01:44;0.30;99.90
37356;DHT22;48747;50.250;18.848;2024-03-08T06:03:48;0.40;99.90
37356;DHT22;48747;50.250;18.848;2024-03-08T06:05:51;0.40;99.90
37356;DHT22;48747;50.250;18.848;2024-03-08T06:07:55;0.50;99.90
37356;DHT22;48747;50.250;18.848;2024-03-08T06:09:58;0.60;99.90
37356;DHT22;48747;50.250;18.848;2024-03-08T06:12:02;0.60;99.90
37356;DHT22;48747;50.250;18.848;2024-03-08T06:14:06;0.60;99.90
37356;DHT22;48747;50.250;18.848;2024-03-08T06:16:09;0.70;99.90
37356;DHT22;48747;50.250;18.848;2024-03-08T06:18:13;0.80;99.90
37356;DHT22;48747;50.250;18.848;2024-03-08T06:20:17;0.80;99.90
37356;DHT22;48747;50.250;18.848;2024-03-08T06:22:20;0.80;99.90
37356;DHT22;48747;50.250;18.848;2024-03-08T06:24:23;0.80;99.90
37356;DHT22;48747;50.250;18.848;2024-03-08T06:26:26;0.90;99.90
37356;DHT22;48747;50.250;18.848;2024-03-08T06:28:32;1.00;99.90
37356;DHT22;48747;50.250;18.848;2024-03-08T06:30:36;1.00;99.90
37356;DHT22;48747;50.250;18.848;2024-03-08T06:32:39;1.00;99.90
37356;DHT22;48747;50.250;18.848;2024-03-08T06:34:44;1.10;99.90
37356;DHT22;48747;50.250;18.848;2024-03-08T06:36:47;1.10;99.90
37356;DHT22;48747;50.250;18.848;2024-03-08T06:38:50;1.10;99.90
37356;DHT22;48747;50.250;18.848;2024-03-08T06:40:54;1.10;99.90
37356;DHT22;48747;50.250;18.848;2024-03-08T06:42:57;1.10;99.90
37356;DHT22;48747;50.250;18.848;2024-03-08T06:45:00;1.20;99.90
37356;DHT22;48747;50.250;18.848;2024-03-08T06:47:05;1.20;99.90
37356;DHT22;48747;50.250;18.848;2024-03-08T06:49:08;1.20;99.90
37356;DHT22;48747;50.250;18.848;2024-03-08T06:51:12;1.20;99.90
37356;DHT22;48747;50.250;18.848;2024-03-08T06:53:16;1.10;99.90
37356;DHT22;48747;50.250;18.848;2024-03-08T06:55:21;1.20;99.90
37356;DHT22;48747;50.250;18.848;2024-03-08T06:57:24;1.20;99.90
37356;DHT22;48747;50.250;18.848;2024-03-08T06:59:27;1.30;99.90
37356;DHT22;48747;50.250;18.848;2024-03-08T07:01:30;1.30;99.90
37356;DHT22;48747;50.250;18.848;2024-03-08T07:03:34;1.30;99.90
37356;DHT22;48747;50.250;18.848;2024-03-08T07:05:37;1.40;99.90
37356;DHT22;48747;50.250;18.848;2024-03-08T07:07:41;1.40;99.90
37356;DHT22;48747;50.250;18.848;2024-03-08T07:09:47;1.50;99.90
37356;DHT22;48747;50.250;18.848;2024-03-08T07:11:51;1.50;99.90
37356;DHT22;48747;50.250;18.848;2024-03-08T07:13:58;1.50;99.90
37356;DHT22;48747;50.250;18.848;2024-03-08T07:16:02;1.50;99.90
37356;DHT22;48747;50.250;18.848;2024-03-08T07:18:05;1.60;99.90
37356;DHT22;48747;50.250;18.848;2024-03-08T07:20:33;1.60;99.90
37356;DHT22;48747;50.250;18.848;2024-03-08T07:22:17;1.60;99.90
37356;DHT22;48747;50.250;18.848;2024-03-08T07:24:20;1.60;99.90
37356;DHT22;48747;50.250;18.848;2024-03-08T07:26:37;1.60;99.90
37356;DHT22;48747;50.250;18.848;2024-03-08T07:28:40;1.60;99.90
37356;DHT22;48747;50.250;18.848;2024-03-08T07:30:43;1.60;99.90
37356;DHT22;48747;50.250;18.848;2024-03-08T07:32:48;1.60;99.90
37356;DHT22;48747;50.250;18.848;2024-03-08T07:34:53;1.70;99.90
37356;DHT22;48747;50.250;18.848;2024-03-08T07:36:57;1.70;99.90
37356;DHT22;48747;50.250;18.848;2024-03-08T07:39:01;1.80;99.90
37356;DHT22;48747;50.250;18.848;2024-03-08T07:41:06;1.80;99.90
37356;DHT22;48747;50.250;18.848;2024-03-08T07:43:09;1.80;99.90
37356;DHT22;48747;50.250;18.848;2024-03-08T07:45:13;1.80;99.90
37356;DHT22;48747;50.250;18.848;2024-03-08T07:47:17;1.80;99.90
37356;DHT22;48747;50.250;18.848;2024-03-08T07:49:21;1.80;99.90
37356;DHT22;48747;50.250;18.848;2024-03-08T07:51:24;1.90;99.90
37356;DHT22;48747;50.250;18.848;2024-03-08T07:53:27;2.00;99.90
37356;DHT22;48747;50.250;18.848;2024-03-08T07:55:30;2.10;99.90
37356;DHT22;48747;50.250;18.848;2024-03-08T07:57:33;2.10;99.90
37356;DHT22;48747;50.250;18.848;2024-03-08T07:59:36;2.10;99.90
37356;DHT22;48747;50.250;18.848;2024-03-08T08:01:39;2.20;99.90
37356;DHT22;48747;50.250;18.848;2024-03-08T08:03:42;2.30;99.90
37356;DHT22;48747;50.250;18.848;2024-03-08T08:05:45;2.40;99.90
37356;DHT22;48747;50.250;18.848;2024-03-08T08:07:48;2.30;99.90
37356;DHT22;48747;50.250;18.848;2024-03-08T08:09:53;2.20;99.90
37356;DHT22;48747;50.250;18.848;2024-03-08T08:11:56;2.30;99.90
37356;DHT22;48747;50.250;18.848;2024-03-08T08:13:59;2.30;99.90
37356;DHT22;48747;50.250;18.848;2024-03-08T08:16:08;2.20;99.90
37356;DHT22;48747;50.250;18.848;2024-03-08T08:18:09;2.20;99.90
37356;DHT22;48747;50.250;18.848;2024-03-08T08:20:12;2.30;99.90
37356;DHT22;48747;50.250;18.848;2024-03-08T08:22:15;2.20;99.90
37356;DHT22;48747;50.250;18.848;2024-03-08T08:24:20;2.20;99.90
37356;DHT22;48747;50.250;18.848;2024-03-08T08:26:23;2.20;99.90
37356;DHT22;48747;50.250;18.848;2024-03-08T08:28:28;2.20;99.90
37356;DHT22;48747;50.250;18.848;2024-03-08T08:30:32;2.20;99.90
37356;DHT22;48747;50.250;18.848;2024-03-08T08:32:36;2.10;99.90
37356;DHT22;48747;50.250;18.848;2024-03-08T08:34:39;2.10;99.90
37356;DHT22;48747;50.250;18.848;2024-03-08T08:36:44;2.10;99.90
37356;DHT22;48747;50.250;18.848;2024-03-08T08:38:47;2.10;99.90
37356;DHT22;48747;50.250;18.848;2024-03-08T08:40:50;2.10;99.90
37356;DHT22;48747;50.250;18.848;2024-03-08T08:42:53;2.20;99.90
37356;DHT22;48747;50.250;18.848;2024-03-08T08:44:56;2.20;99.90
37356;DHT22;48747;50.250;18.848;2024-03-08T08:46:59;2.20;99.90
37356;DHT22;48747;50.250;18.848;2024-03-08T08:49:02;2.30;99.90
37356;DHT22;48747;50.250;18.848;2024-03-08T08:51:05;2.30;99.90
37356;DHT22;48747;50.250;18.848;2024-03-08T08:53:08;2.40;99.90
37356;DHT22;48747;50.250;18.848;2024-03-08T08:55:12;2.50;99.90
37356;DHT22;48747;50.250;18.848;2024-03-08T08:57:16;2.60;99.90
37356;DHT22;48747;50.250;18.848;2024-03-08T08:59:19;2.60;99.90
37356;DHT22;48747;50.250;18.848;2024-03-08T09:01:22;2.60;99.90
37356;DHT22;48747;50.250;18.848;2024-03-08T09:03:25;2.60;99.90
37356;DHT22;48747;50.250;18.848;2024-03-08T09:05:30;2.70;99.90
37356;DHT22;48747;50.250;18.848;2024-03-08T09:07:33;2.70;99.90
37356;DHT22;48747;50.250;18.848;2024-03-08T09:09:36;2.80;99.90
37356;DHT22;48747;50.250;18.848;2024-03-08T09:11:40;2.90;99.90
37356;DHT22;48747;50.250;18.848;2024-03-08T09:13:47;3.00;99.90
37356;DHT22;48747;50.250;18.848;2024-03-08T09:15:51;3.00;99.90
37356;DHT22;48747;50.250;18.848;2024-03-08T09:17:54;2.90;99.90
37356;DHT22;48747;50.250;18.848;2024-03-08T09:19:57;3.00;99.90
37356;DHT22;48747;50.250;18.848;2024-03-08T09:22:01;3.00;99.90
37356;DHT22;48747;50.250;18.848;2024-03-08T09:24:06;3.00;99.90
37356;DHT22;48747;50.250;18.848;2024-03-08T09:26:09;3.00;99.90
37356;DHT22;48747;50.250;18.848;2024-03-08T09:28:14;3.10;99.90
37356;DHT22;48747;50.250;18.848;2024-03-08T09:30:17;3.00;99.90
37356;DHT22;48747;50.250;18.848;2024-03-08T09:32:22;3.10;99.90
37356;DHT22;48747;50.250;18.848;2024-03-08T09:34:25;3.10;99.90
37356;DHT22;48747;50.250;18.848;2024-03-08T09:36:28;3.10;99.90
37356;DHT22;48747;50.250;18.848;2024-03-08T09:38:32;3.10;99.90
37356;DHT22;48747;50.250;18.848;2024-03-08T09:40:36;3.10;99.90
37356;DHT22;48747;50.250;18.848;2024-03-08T09:42:39;3.00;99.90
37356;DHT22;48747;50.250;18.848;2024-03-08T09:44:46;3.10;99.90
37356;DHT22;48747;50.250;18.848;2024-03-08T09:46:50;3.10;99.90
37356;DHT22;48747;50.250;18.848;2024-03-08T09:48:56;3.20;99.90
37356;DHT22;48747;50.250;18.848;2024-03-08T09:50:59;3.30;99.90
37356;DHT22;48747;50.250;18.848;2024-03-08T09:53:02;3.30;99.90
37356;DHT22;48747;50.250;18.848;2024-03-08T09:55:07;3.30;99.90
37356;DHT22;48747;50.250;18.848;2024-03-08T09:57:10;3.20;99.90
37356;DHT22;48747;50.250;18.848;2024-03-08T09:59:14;3.30;99.90
37356;DHT22;48747;50.250;18.848;2024-03-08T10:01:18;3.60;99.90
37356;DHT22;48747;50.250;18.848;2024-03-08T10:03:21;3.70;99.90
37356;DHT22;48747;50.250;18.848;2024-03-08T10:05:25;3.70;99.90
37356;DHT22;48747;50.250;18.848;2024-03-08T10:07:28;3.80;99.90
37356;DHT22;48747;50.250;18.848;2024-03-08T10:09:31;3.80;99.90
37356;DHT22;48747;50.250;18.848;2024-03-08T10:11:34;3.70;99.90
37356;DHT22;48747;50.250;18.848;2024-03-08T10:13:37;3.60;99.90
37356;DHT22;48747;50.250;18.848;2024-03-08T10:15:43;3.60;99.90
37356;DHT22;48747;50.250;18.848;2024-03-08T10:17:47;3.60;99.90
37356;DHT22;48747;50.250;18.848;2024-03-08T10:19:51;3.70;99.90
37356;DHT22;48747;50.250;18.848;2024-03-08T10:21:54;3.70;99.90
37356;DHT22;48747;50.250;18.848;2024-03-08T10:23:59;3.80;99.90
37356;DHT22;48747;50.250;18.848;2024-03-08T10:26:15;4.10;99.90
37356;DHT22;48747;50.250;18.848;2024-03-08T10:28:20;4.10;99.90
37356;DHT22;48747;50.250;18.848;2024-03-08T10:30:24;4.30;99.90
37356;DHT22;48747;50.250;18.848;2024-03-08T10:32:27;4.50;99.90
37356;DHT22;48747;50.250;18.848;2024-03-08T10:34:30;4.70;99.90
37356;DHT22;48747;50.250;18.848;2024-03-08T10:36:34;4.80;99.90
37356;DHT22;48747;50.250;18.848;2024-03-08T10:38:41;5.20;99.90
37356;DHT22;48747;50.250;18.848;2024-03-08T10:40:46;5.60;99.90
37356;DHT22;48747;50.250;18.848;2024-03-08T10:42:53;5.90;99.90
37356;DHT22;48747;50.250;18.848;2024-03-08T10:45:06;6.00;99.90
37356;DHT22;48747;50.250;18.848;2024-03-08T10:47:29;5.80;99.90
37356;DHT22;48747;50.250;18.848;2024-03-08T10:49:19;5.70;99.90
37356;DHT22;48747;50.250;18.848;2024-03-08T10:51:25;5.40;99.90
37356;DHT22;48747;50.250;18.848;2024-03-08T10:53:29;5.30;99.90
37356;DHT22;48747;50.250;18.848;2024-03-08T10:55:33;5.10;99.90
37356;DHT22;48747;50.250;18.848;2024-03-08T10:57:39;5.00;99.90
37356;DHT22;48747;50.250;18.848;2024-03-08T10:59:43;4.90;99.90
37356;DHT22;48747;50.250;18.848;2024-03-08T11:01:47;4.70;99.90
37356;DHT22;48747;50.250;18.848;2024-03-08T11:03:50;4.70;99.90
37356;DHT22;48747;50.250;18.848;2024-03-08T11:05:55;4.80;99.90
37356;DHT22;48747;50.250;18.848;2024-03-08T11:07:59;4.90;99.90
37356;DHT22;48747;50.250;18.848;2024-03-08T11:10:06;5.00;99.90
37356;DHT22;48747;50.250;18.848;2024-03-08T11:12:22;5.00;99.90
37356;DHT22;48747;50.250;18.848;2024-03-08T11:14:49;4.90;99.90
37356;DHT22;48747;50.250;18.848;2024-03-08T11:16:52;4.90;99.90
37356;DHT22;48747;50.250;18.848;2024-03-08T11:19:00;4.90;99.90
37356;DHT22;48747;50.250;18.848;2024-03-08T11:21:12;5.00;99.90
37356;DHT22;48747;50.250;18.848;2024-03-08T11:23:14;5.10;99.90
37356;DHT22;48747;50.250;18.848;2024-03-08T11:25:38;5.10;99.90
37356;DHT22;48747;50.250;18.848;2024-03-08T11:27:53;5.10;99.90
37356;DHT22;48747;50.250;18.848;2024-03-08T11:30:07;5.10;99.90
37356;DHT22;48747;50.250;18.848;2024-03-08T11:32:15;5.20;99.90
37356;DHT22;48747;50.250;18.848;2024-03-08T11:34:19;5.30;99.90
37356;DHT22;48747;50.250;18.848;2024-03-08T11:36:30;5.40;99.90
37356;DHT22;48747;50.250;18.848;2024-03-08T11:38:31;5.50;99.90
37356;DHT22;48747;50.250;18.848;2024-03-08T11:40:35;5.50;99.90
37356;DHT22;48747;50.250;18.848;2024-03-08T11:42:39;5.60;99.90
37356;DHT22;48747;50.250;18.848;2024-03-08T11:44:47;5.60;99.90
37356;DHT22;48747;50.250;18.848;2024-03-08T11:46:50;5.60;99.90
37356;DHT22;48747;50.250;18.848;2024-03-08T11:48:54;5.70;99.90
37356;DHT22;48747;50.250;18.848;2024-03-08T11:51:01;5.80;99.90
37356;DHT22;48747;50.250;18.848;2024-03-08T11:53:05;5.80;99.90
37356;DHT22;48747;50.250;18.848;2024-03-08T11:55:08;5.80;99.90
37356;DHT22;48747;50.250;18.848;2024-03-08T11:57:12;5.80;99.90
37356;DHT22;48747;50.250;18.848;2024-03-08T11:59:15;5.70;99.90
37356;DHT22;48747;50.250;18.848;2024-03-08T12:01:19;5.70;99.90
37356;DHT22;48747;50.250;18.848;2024-03-08T12:03:22;5.60;99.90
37356;DHT22;48747;50.250;18.848;2024-03-08T12:05:25;5.60;99.90
37356;DHT22;48747;50.250;18.848;2024-03-08T12:07:30;5.60;99.90
37356;DHT22;48747;50.250;18.848;2024-03-08T12:09:36;5.70;99.90
37356;DHT22;48747;50.250;18.848;2024-03-08T12:11:39;5.80;99.90
37356;DHT22;48747;50.250;18.848;2024-03-08T12:13:42;5.80;99.90
37356;DHT22;48747;50.250;18.848;2024-03-08T12:15:47;5.90;99.90
37356;DHT22;48747;50.250;18.848;2024-03-08T12:17:52;6.00;99.90
37356;DHT22;48747;50.250;18.848;2024-03-08T12:19:56;6.00;99.90
37356;DHT22;48747;50.250;18.848;2024-03-08T12:22:07;6.00;99.90
37356;DHT22;48747;50.250;18.848;2024-03-08T12:24:07;6.00;99.90
37356;DHT22;48747;50.250;18.848;2024-03-08T12:26:12;6.00;99.90
37356;DHT22;48747;50.250;18.848;2024-03-08T12:28:19;6.00;99.90
37356;DHT22;48747;50.250;18.848;2024-03-08T12:30:25;6.00;99.90
37356;DHT22;48747;50.250;18.848;2024-03-08T12:32:31;6.10;99.90
37356;DHT22;48747;50.250;18.848;2024-03-08T12:34:34;6.10;99.90
37356;DHT22;48747;50.250;18.848;2024-03-08T12:36:37;6.10;99.90
37356;DHT22;48747;50.250;18.848;2024-03-08T12:38:40;6.20;99.90
37356;DHT22;48747;50.250;18.848;2024-03-08T12:40:45;6.10;99.90
37356;DHT22;48747;50.250;18.848;2024-03-08T12:42:48;6.20;99.90
37356;DHT22;48747;50.250;18.848;2024-03-08T12:44:51;6.10;99.90
37356;DHT22;48747;50.250;18.848;2024-03-08T12:46:56;6.10;99.90
37356;DHT22;48747;50.250;18.848;2024-03-08T12:49:00;6.20;99.90
37356;DHT22;48747;50.250;18.848;2024-03-08T12:51:05;6.30;99.90
37356;DHT22;48747;50.250;18.848;2024-03-08T12:53:09;6.40;99.90
37356;DHT22;48747;50.250;18.848;2024-03-08T12:55:15;6.40;99.90
37356;DHT22;48747;50.250;18.848;2024-03-08T12:57:18;6.50;99.90
37356;DHT22;48747;50.250;18.848;2024-03-08T12:59:21;6.50;98.90
37356;DHT22;48747;50.250;18.848;2024-03-08T13:01:25;6.50;98.50